createdAt,value
2023-04-18T00:01:40.801Z,1.70
2023-04-18T00:04:09.730Z,1.90
2023-04-18T00:06:38.051Z,1.90
2023-04-18T00:09:06.408Z,1.90
2023-04-18T00:11:35.111Z,1.70
2023-04-18T00:14:03.514Z,1.80
2023-04-18T00:16:32.772Z,2.00
2023-04-18T00:19:02.429Z,1.80
2023-04-18T00:21:31.967Z,1.70
2023-04-18T00:24:00.183Z,2.00
2023-04-18T00:26:28.292Z,1.60
2023-04-18T00:28:56.430Z,1.90
2023-04-18T00:31:24.555Z,2.00
2023-04-18T00:33:53.125Z,1.80
2023-04-18T00:36:21.267Z,2.40
2023-04-18T00:38:49.406Z,2.20
2023-04-18T00:41:17.534Z,2.10
2023-04-18T00:43:45.725Z,2.10
2023-04-18T00:46:13.844Z,2.20
2023-04-18T00:48:42.121Z,2.10
2023-04-18T00:51:11.123Z,2.30
2023-04-18T00:53:41.126Z,2.30
2023-04-18T00:56:09.365Z,2.20
2023-04-18T00:58:37.575Z,2.30
2023-04-18T01:01:05.820Z,2.40
2023-04-18T01:03:35.011Z,2.30
2023-04-18T01:06:03.389Z,2.40
2023-04-18T01:08:31.646Z,2.20
2023-04-18T01:10:59.733Z,2.30
2023-04-18T01:13:27.830Z,2.40
2023-04-18T01:15:55.995Z,2.40
2023-04-18T01:18:24.601Z,2.60
2023-04-18T01:20:53.908Z,2.50
2023-04-18T01:23:21.950Z,2.10
2023-04-18T01:25:50.107Z,2.30
2023-04-18T01:28:20.136Z,2.20
2023-04-18T01:30:48.316Z,2.20
2023-04-18T01:33:16.552Z,2.30
2023-04-18T01:35:44.675Z,1.70
2023-04-18T01:38:12.834Z,1.90
2023-04-18T01:40:40.888Z,2.10
2023-04-18T01:43:09.061Z,2.00
2023-04-18T01:45:37.267Z,2.00
2023-04-18T01:48:05.576Z,1.90
2023-04-18T01:50:33.684Z,1.90
2023-04-18T01:53:01.778Z,1.80
2023-04-18T01:55:29.871Z,1.60
2023-04-18T01:57:58.083Z,1.70
2023-04-18T02:00:26.424Z,1.80
2023-04-18T02:02:54.756Z,1.80
2023-04-18T02:05:23.100Z,2.10
2023-04-18T02:07:51.295Z,1.90
2023-04-18T02:10:20.200Z,1.70
2023-04-18T02:12:48.261Z,1.80
2023-04-18T02:15:16.456Z,1.80
2023-04-18T02:17:44.606Z,1.90
2023-04-18T02:20:13.500Z,2.10
2023-04-18T02:22:41.615Z,1.70
2023-04-18T02:25:09.948Z,2.20
2023-04-18T02:27:38.103Z,1.90
2023-04-18T02:30:07.447Z,2.20
2023-04-18T02:32:35.573Z,2.30
2023-04-18T02:35:03.945Z,2.10
2023-04-18T02:37:32.085Z,1.90
2023-04-18T02:40:00.216Z,1.70
2023-04-18T02:42:28.383Z,2.20
2023-04-18T02:44:56.511Z,1.90
2023-04-18T02:47:24.564Z,1.80
2023-04-18T02:49:52.818Z,2.00
2023-04-18T02:52:20.916Z,1.90
2023-04-18T02:54:49.123Z,2.10
2023-04-18T02:57:17.293Z,2.10
2023-04-18T02:59:45.533Z,2.00
2023-04-18T03:02:13.812Z,2.20
2023-04-18T03:04:42.036Z,2.20
2023-04-18T03:07:10.117Z,2.00
2023-04-18T03:09:38.231Z,1.90
2023-04-18T03:12:06.410Z,2.10
2023-04-18T03:14:34.492Z,2.10
2023-04-18T03:17:02.762Z,2.10
2023-04-18T03:19:32.176Z,2.20
2023-04-18T03:22:00.598Z,2.50
2023-04-18T03:24:28.727Z,2.60
2023-04-18T03:26:56.957Z,2.50
2023-04-18T03:29:25.148Z,2.90
2023-04-18T03:31:53.195Z,3.00
2023-04-18T03:34:21.587Z,2.50
2023-04-18T03:36:49.928Z,2.70
2023-04-18T03:39:17.954Z,2.50
2023-04-18T03:41:46.077Z,2.10
2023-04-18T03:44:14.316Z,2.80
2023-04-18T03:46:42.788Z,2.20
2023-04-18T03:49:11.112Z,2.40
2023-04-18T03:51:45.420Z,2.40
2023-04-18T03:54:14.674Z,2.20
2023-04-18T03:56:43.418Z,2.70
2023-04-18T03:59:12.086Z,2.30
2023-04-18T04:01:40.287Z,2.30
2023-04-18T04:04:09.534Z,2.40
2023-04-18T04:06:37.843Z,2.70
2023-04-18T04:09:06.009Z,2.70
2023-04-18T04:11:34.134Z,2.30
2023-04-18T04:14:02.441Z,2.70
2023-04-18T04:16:30.672Z,2.60
2023-04-18T04:18:58.869Z,2.50
2023-04-18T04:21:27.357Z,2.50
2023-04-18T04:23:55.474Z,2.20
2023-04-18T04:26:23.773Z,2.60
2023-04-18T04:28:53.657Z,2.50
2023-04-18T04:31:22.429Z,3.20
2023-04-18T04:33:50.686Z,2.50
2023-04-18T04:36:19.077Z,2.80
2023-04-18T04:38:47.497Z,2.90
2023-04-18T04:41:15.664Z,2.90
2023-04-18T04:43:43.761Z,2.80
2023-04-18T04:46:13.984Z,2.80
2023-04-18T04:48:42.631Z,2.50
2023-04-18T04:51:10.762Z,2.30
2023-04-18T04:53:39.100Z,1.90
2023-04-18T04:56:07.443Z,1.70
2023-04-18T04:58:35.556Z,2.40
2023-04-18T05:01:03.764Z,2.10
2023-04-18T05:03:32.090Z,2.10
2023-04-18T05:06:00.354Z,2.20
2023-04-18T05:08:28.474Z,2.20
2023-04-18T05:10:56.537Z,1.90
2023-04-18T05:13:24.620Z,1.90
2023-04-18T05:15:52.849Z,2.80
2023-04-18T05:18:21.087Z,2.80
2023-04-18T05:20:49.453Z,2.90
2023-04-18T05:23:17.929Z,3.20
2023-04-18T05:25:46.007Z,4.80
2023-04-18T05:28:14.118Z,4.00
2023-04-18T05:30:42.204Z,3.70
2023-04-18T05:33:10.393Z,3.30
2023-04-18T05:35:38.532Z,2.90
2023-04-18T05:38:06.705Z,3.00
2023-04-18T05:40:35.208Z,3.20
2023-04-18T05:43:03.296Z,3.40
2023-04-18T05:45:31.401Z,4.30
2023-04-18T05:47:59.570Z,4.00
2023-04-18T05:50:27.682Z,3.60
2023-04-18T05:52:58.984Z,3.20
2023-04-18T05:55:27.194Z,2.90
2023-04-18T05:57:55.512Z,2.80
2023-04-18T06:00:23.777Z,3.30
2023-04-18T06:02:52.030Z,2.90
2023-04-18T06:05:20.942Z,2.70
2023-04-18T06:07:49.500Z,3.00
2023-04-18T06:10:17.627Z,2.50
2023-04-18T06:12:45.943Z,2.70
2023-04-18T06:15:14.008Z,3.30
2023-04-18T06:17:42.255Z,2.70
2023-04-18T06:20:10.979Z,3.10
2023-04-18T06:22:39.063Z,2.90
2023-04-18T06:25:08.957Z,2.80
2023-04-18T06:27:38.088Z,2.80
2023-04-18T06:30:07.826Z,2.90
2023-04-18T06:32:36.019Z,3.20
2023-04-18T06:35:04.273Z,2.70
2023-04-18T06:37:32.400Z,2.40
2023-04-18T06:40:00.556Z,2.20
2023-04-18T06:42:28.718Z,2.60
2023-04-18T06:44:56.836Z,2.70
2023-04-18T06:47:25.039Z,2.30
2023-04-18T06:49:53.218Z,2.20
2023-04-18T06:52:21.372Z,1.90
2023-04-18T06:54:49.471Z,1.80
2023-04-18T06:57:17.740Z,2.30
2023-04-18T06:59:45.857Z,2.00
2023-04-18T07:02:14.072Z,2.00
2023-04-18T07:04:42.403Z,1.90
2023-04-18T07:07:10.913Z,2.20
2023-04-18T07:09:39.023Z,1.70
2023-04-18T07:12:07.381Z,1.80
2023-04-18T07:14:35.541Z,1.90
2023-04-18T07:17:03.705Z,1.60
2023-04-18T07:19:31.895Z,2.10
2023-04-18T07:22:00.794Z,1.70
2023-04-18T07:24:29.155Z,1.80
2023-04-18T07:26:57.240Z,2.10
2023-04-18T07:29:25.372Z,2.10
2023-04-18T07:31:53.491Z,2.20
2023-04-18T07:34:23.068Z,2.10
2023-04-18T07:36:51.590Z,1.80
2023-04-18T07:39:19.779Z,1.80
2023-04-18T07:41:47.879Z,2.10
2023-04-18T07:44:16.142Z,2.10
2023-04-18T07:46:44.597Z,1.50
2023-04-18T07:49:13.156Z,2.00
2023-04-18T07:51:41.628Z,1.50
2023-04-18T07:54:11.253Z,1.80
2023-04-18T07:56:39.313Z,1.90
2023-04-18T07:59:07.359Z,2.00
2023-04-18T08:01:35.628Z,1.80
2023-04-18T08:04:03.846Z,1.70
2023-04-18T08:06:32.287Z,1.70
2023-04-18T08:09:04.504Z,1.90
2023-04-18T08:11:33.921Z,1.80
2023-04-18T08:14:02.009Z,1.80
2023-04-18T08:16:30.211Z,2.00
2023-04-18T08:18:58.342Z,1.70
2023-04-18T08:21:26.991Z,1.80
2023-04-18T08:23:55.693Z,1.80
2023-04-18T08:26:23.874Z,1.80
2023-04-18T08:28:52.067Z,1.90
2023-04-18T08:31:20.287Z,1.70
2023-04-18T08:33:48.374Z,1.40
2023-04-18T08:36:16.575Z,1.60
2023-04-18T08:38:44.642Z,2.30
2023-04-18T08:41:12.717Z,1.90
2023-04-18T08:43:40.878Z,1.50
2023-04-18T08:46:09.298Z,1.70
2023-04-18T08:48:37.565Z,1.70
2023-04-18T08:51:05.749Z,1.70
2023-04-18T08:53:34.128Z,1.60
2023-04-18T08:56:03.315Z,1.80
2023-04-18T08:58:32.637Z,1.60
2023-04-18T09:01:01.110Z,1.80
2023-04-18T09:03:39.811Z,1.40
2023-04-18T09:06:14.023Z,1.60
2023-04-18T09:08:46.563Z,1.60
2023-04-18T09:11:22.530Z,1.60
2023-04-18T09:13:50.705Z,1.90
2023-04-18T09:16:23.112Z,1.70
2023-04-18T09:19:11.374Z,1.50
2023-04-18T09:21:41.792Z,1.70
2023-04-18T09:24:29.530Z,2.00
2023-04-18T09:26:58.809Z,1.60
2023-04-18T09:29:46.933Z,1.40
2023-04-18T09:32:25.384Z,1.60
2023-04-18T09:34:58.364Z,1.40
2023-04-18T09:37:27.107Z,1.60
2023-04-18T09:39:55.668Z,1.70
2023-04-18T09:42:24.383Z,1.30
2023-04-18T09:45:07.898Z,1.70
2023-04-18T09:47:37.569Z,1.70
2023-04-18T09:50:08.364Z,1.50
2023-04-18T09:52:38.166Z,2.10
2023-04-18T09:55:11.904Z,1.80
2023-04-18T09:57:42.677Z,1.60
2023-04-18T10:00:17.939Z,1.40
2023-04-18T10:02:58.645Z,1.80
2023-04-18T10:05:35.068Z,1.50
2023-04-18T10:08:03.890Z,1.60
2023-04-18T10:10:32.928Z,1.50
2023-04-18T10:13:03.133Z,1.30
2023-04-18T10:15:32.439Z,1.60
2023-04-18T10:18:05.761Z,1.80
2023-04-18T10:20:35.480Z,1.40
2023-04-18T10:23:37.762Z,1.80
2023-04-18T10:26:07.800Z,1.40
2023-04-18T10:28:56.887Z,1.60
2023-04-18T10:31:27.155Z,1.50
2023-04-18T10:36:29.208Z,1.40
2023-04-18T10:39:04.083Z,1.70
2023-04-18T10:41:34.405Z,1.50
2023-04-18T10:44:09.143Z,1.50
2023-04-18T10:46:38.411Z,1.30
2023-04-18T10:49:26.415Z,1.40
2023-04-18T10:51:58.792Z,1.20
2023-04-18T10:54:55.238Z,1.30
2023-04-18T10:57:24.607Z,1.30
2023-04-18T10:59:52.877Z,1.50
2023-04-18T11:02:30.378Z,1.70
2023-04-18T11:05:04.891Z,1.90
2023-04-18T11:07:42.042Z,1.70
2023-04-18T11:10:10.371Z,1.90
2023-04-18T11:12:40.453Z,1.60
2023-04-18T11:15:21.894Z,1.50
2023-04-18T11:18:01.112Z,1.60
2023-04-18T11:20:37.870Z,1.40
2023-04-18T11:23:20.732Z,1.60
2023-04-18T11:25:54.637Z,1.50
2023-04-18T11:28:25.081Z,2.00
2023-04-18T11:30:58.236Z,2.00
2023-04-18T11:33:28.809Z,1.60
2023-04-18T11:35:59.756Z,1.90
2023-04-18T11:38:30.929Z,1.90
2023-04-18T11:40:59.408Z,1.60
2023-04-18T11:43:27.625Z,1.70
2023-04-18T11:45:57.210Z,1.70
2023-04-18T11:48:35.223Z,1.60
2023-04-18T11:51:03.309Z,1.90
2023-04-18T11:53:35.925Z,1.60
2023-04-18T11:56:04.832Z,1.50
2023-04-18T11:58:34.652Z,1.70
2023-04-18T12:01:23.251Z,1.60
2023-04-18T12:04:06.077Z,1.80
2023-04-18T12:06:51.877Z,1.70
2023-04-18T12:09:22.397Z,1.70
2023-04-18T12:12:04.128Z,1.50
2023-04-18T12:14:32.225Z,2.00
2023-04-18T12:17:04.142Z,1.70
2023-04-18T12:19:32.885Z,1.60
2023-04-18T12:22:05.372Z,1.30
2023-04-18T12:24:34.043Z,1.50
2023-04-18T12:27:02.244Z,1.70
2023-04-18T12:29:30.454Z,1.50
2023-04-18T12:31:58.620Z,1.70
2023-04-18T12:34:26.702Z,1.50
2023-04-18T12:36:54.947Z,1.50
2023-04-18T12:39:23.323Z,1.20
2023-04-18T12:41:51.426Z,1.80
2023-04-18T12:44:19.528Z,1.60
2023-04-18T12:46:47.783Z,1.80
2023-04-18T12:49:16.021Z,2.00
2023-04-18T12:51:44.081Z,1.70
2023-04-18T12:54:12.359Z,1.70
2023-04-18T12:56:40.878Z,1.90
2023-04-18T12:59:08.954Z,1.80
2023-04-18T13:01:37.076Z,1.50
2023-04-18T13:04:12.225Z,1.50
2023-04-18T13:06:41.600Z,1.80
2023-04-18T13:09:10.531Z,1.80
2023-04-18T13:11:38.679Z,1.70
2023-04-18T13:14:06.758Z,1.70
2023-04-18T13:16:34.972Z,1.70
2023-04-18T13:19:03.096Z,1.50
2023-04-18T13:21:31.438Z,1.90
2023-04-18T13:23:59.589Z,1.70
2023-04-18T13:26:27.979Z,1.90
2023-04-18T13:28:56.064Z,1.90
2023-04-18T13:31:24.397Z,1.30
2023-04-18T13:33:52.572Z,1.80
2023-04-18T13:36:20.857Z,1.50
2023-04-18T13:38:49.444Z,1.50
2023-04-18T13:41:17.663Z,1.60
2023-04-18T13:43:45.796Z,1.40
2023-04-18T13:46:14.128Z,1.40
2023-04-18T13:48:42.317Z,1.70
2023-04-18T13:51:10.611Z,1.60
2023-04-18T13:53:38.749Z,2.10
2023-04-18T13:56:07.701Z,1.80
2023-04-18T13:58:35.997Z,1.70
2023-04-18T14:01:04.110Z,1.60
2023-04-18T14:03:33.667Z,1.70
2023-04-18T14:06:03.784Z,1.50
2023-04-18T14:08:31.887Z,1.70
2023-04-18T14:11:00.103Z,1.50
2023-04-18T14:13:28.189Z,1.60
2023-04-18T14:15:56.350Z,1.60
2023-04-18T14:18:24.854Z,1.60
2023-04-18T14:20:53.437Z,1.50
2023-04-18T14:23:22.655Z,1.20
2023-04-18T14:25:50.941Z,1.70
2023-04-18T14:28:21.633Z,1.60
2023-04-18T14:30:49.853Z,1.60
2023-04-18T14:33:18.509Z,1.40
2023-04-18T14:35:46.546Z,1.70
2023-04-18T14:38:14.639Z,1.70
2023-04-18T14:40:42.753Z,1.40
2023-04-18T14:43:12.071Z,1.90
2023-04-18T14:45:40.182Z,1.60
2023-04-18T14:48:10.325Z,1.70
2023-04-18T14:50:38.960Z,1.60
2023-04-18T14:53:07.528Z,1.70
2023-04-18T14:55:35.745Z,1.70
2023-04-18T14:58:04.048Z,1.60
2023-04-18T15:00:33.283Z,2.10
2023-04-18T15:03:01.677Z,1.60
2023-04-18T15:05:30.039Z,1.90
2023-04-18T15:07:58.238Z,1.50
2023-04-18T15:10:26.437Z,1.60
2023-04-18T15:12:54.516Z,1.60
2023-04-18T15:15:22.861Z,1.50
2023-04-18T15:17:50.988Z,2.00
2023-04-18T15:20:19.834Z,1.90
2023-04-18T15:22:48.858Z,1.50
2023-04-18T15:25:17.240Z,2.30
2023-04-18T15:27:45.272Z,1.80
2023-04-18T15:30:14.113Z,1.80
2023-04-18T15:32:42.473Z,1.60
2023-04-18T15:35:11.462Z,1.80
2023-04-18T15:37:39.612Z,1.80
2023-04-18T15:40:10.550Z,1.80
2023-04-18T15:42:39.348Z,2.00
2023-04-18T15:45:08.207Z,1.50
2023-04-18T15:47:36.604Z,1.90
2023-04-18T15:50:05.344Z,1.80
2023-04-18T15:52:33.427Z,1.80
2023-04-18T15:55:01.595Z,1.90
2023-04-18T15:57:29.975Z,1.70
2023-04-18T15:59:59.629Z,1.60
2023-04-18T16:02:27.954Z,2.00
2023-04-18T16:04:56.147Z,1.90
2023-04-18T16:07:24.312Z,2.20
2023-04-18T16:09:52.358Z,2.00
2023-04-18T16:12:20.435Z,1.80
2023-04-18T16:14:48.593Z,2.10
2023-04-18T16:17:16.706Z,1.60
2023-04-18T16:19:44.957Z,1.80
2023-04-18T16:22:13.374Z,1.70
2023-04-18T16:24:42.309Z,2.00
2023-04-18T16:27:10.488Z,1.60
2023-04-18T16:29:38.723Z,2.00
2023-04-18T16:32:08.604Z,1.80
2023-04-18T16:34:36.692Z,1.90
2023-04-18T16:37:04.807Z,1.70
2023-04-18T16:39:33.055Z,1.80
2023-04-18T16:42:01.527Z,1.70
2023-04-18T16:44:30.887Z,2.10
2023-04-18T16:46:59.244Z,2.10
2023-04-18T16:49:27.450Z,1.80
2023-04-18T16:51:55.594Z,2.20
2023-04-18T16:54:23.769Z,2.00
2023-04-18T16:56:51.914Z,1.90
2023-04-18T16:59:19.975Z,1.80
2023-04-18T17:01:48.136Z,1.60
2023-04-18T17:04:16.614Z,2.10
2023-04-18T17:06:45.091Z,2.20
2023-04-18T17:09:16.590Z,2.10
2023-04-18T17:11:44.861Z,1.90
2023-04-18T17:14:13.632Z,2.30
2023-04-18T17:16:42.385Z,1.90
2023-04-18T17:19:11.238Z,2.30
2023-04-18T17:21:39.422Z,1.90
2023-04-18T17:24:07.837Z,2.10
2023-04-18T17:26:38.874Z,2.00
2023-04-18T17:29:06.997Z,2.00
2023-04-18T17:31:35.187Z,1.90
2023-04-18T17:34:06.316Z,2.00
2023-04-18T17:36:34.413Z,2.10
2023-04-18T17:39:09.795Z,1.90
2023-04-18T17:41:39.102Z,2.10
2023-04-18T17:44:08.382Z,1.80
2023-04-18T17:46:36.820Z,1.90
2023-04-18T17:49:05.149Z,1.80
2023-04-18T17:51:33.352Z,1.90
2023-04-18T17:54:01.467Z,1.90
2023-04-18T17:56:30.602Z,2.00
2023-04-18T17:58:58.629Z,1.90
2023-04-18T18:01:28.873Z,2.10
2023-04-18T18:03:57.275Z,2.00
2023-04-18T18:06:27.738Z,1.90
2023-04-18T18:08:56.183Z,2.10
2023-04-18T18:11:24.424Z,2.30
2023-04-18T18:13:54.714Z,2.30
2023-04-18T18:16:24.135Z,1.90
2023-04-18T18:18:52.392Z,2.30
2023-04-18T18:21:20.574Z,2.10
2023-04-18T18:23:48.616Z,2.30
2023-04-18T18:26:16.649Z,2.80
2023-04-18T18:28:44.637Z,2.00
2023-04-18T18:31:12.673Z,2.20
2023-04-18T18:33:40.821Z,1.90
2023-04-18T18:36:08.929Z,1.80
2023-04-18T18:38:37.043Z,2.30
2023-04-18T18:41:05.818Z,2.60
2023-04-18T18:43:34.157Z,2.20
2023-04-18T18:46:02.288Z,2.30
2023-04-18T18:48:30.466Z,3.10
2023-04-18T18:50:58.599Z,2.50
2023-04-18T18:53:26.683Z,2.50
2023-04-18T18:55:54.756Z,2.50
2023-04-18T18:58:22.889Z,2.50
2023-04-18T19:00:51.319Z,2.30
2023-04-18T19:03:21.262Z,2.30
2023-04-18T19:05:49.519Z,2.60
2023-04-18T19:08:17.594Z,2.10
2023-04-18T19:10:45.789Z,2.40
2023-04-18T19:13:13.898Z,1.90
2023-04-18T19:15:42.115Z,2.20
2023-04-18T19:18:10.326Z,2.10
2023-04-18T19:20:40.511Z,2.40
2023-04-18T19:23:08.662Z,2.60
2023-04-18T19:25:36.720Z,2.60
2023-04-18T19:28:06.002Z,2.30
2023-04-18T19:30:34.250Z,2.30
2023-04-18T19:33:02.489Z,2.50
2023-04-18T19:35:30.684Z,2.20
2023-04-18T19:38:01.817Z,2.30
2023-04-18T19:40:30.160Z,2.00
2023-04-18T19:42:58.399Z,2.20
2023-04-18T19:45:26.951Z,2.10
2023-04-18T19:47:55.138Z,2.30
2023-04-18T19:50:23.316Z,2.40
2023-04-18T19:52:51.483Z,2.20
2023-04-18T19:55:19.729Z,2.60
2023-04-18T19:57:48.238Z,2.60
2023-04-18T20:00:16.657Z,2.60
2023-04-18T20:02:44.950Z,2.80
2023-04-18T20:05:13.448Z,3.10
2023-04-18T20:07:41.992Z,2.60
2023-04-18T20:10:11.087Z,3.20
2023-04-18T20:12:39.180Z,2.70
2023-04-18T20:15:08.045Z,2.60
2023-04-18T20:17:36.214Z,2.70
2023-04-18T20:20:04.846Z,2.90
2023-04-18T20:22:33.266Z,2.90
2023-04-18T20:25:01.799Z,2.70
2023-04-18T20:27:29.893Z,2.60
2023-04-18T20:29:57.944Z,3.00
2023-04-18T20:32:26.850Z,2.90
2023-04-18T20:34:54.977Z,2.80
2023-04-18T20:37:23.129Z,2.90
2023-04-18T20:39:52.942Z,2.90
2023-04-18T20:42:21.169Z,3.10
2023-04-18T20:44:49.326Z,3.30
2023-04-18T20:47:35.929Z,3.30
2023-04-18T20:50:04.272Z,2.80
2023-04-18T20:55:17.760Z,3.20
2023-04-18T20:57:45.932Z,3.20
2023-04-18T21:00:14.218Z,3.30
2023-04-18T21:02:42.633Z,2.90
2023-04-18T21:05:10.832Z,2.80
2023-04-18T21:07:38.939Z,3.40
2023-04-18T21:10:07.776Z,3.20
2023-04-18T21:12:35.907Z,3.30
2023-04-18T21:15:05.678Z,3.10
2023-04-18T21:17:33.833Z,3.40
2023-04-18T21:20:02.025Z,3.20
2023-04-18T21:22:30.172Z,3.70
2023-04-18T21:24:58.289Z,3.40
2023-04-18T21:27:26.453Z,2.90
2023-04-18T21:29:54.529Z,3.10
2023-04-18T21:32:23.065Z,3.50
2023-04-18T21:34:51.184Z,3.00
2023-04-18T21:37:19.363Z,3.10
2023-04-18T21:39:47.412Z,3.00
2023-04-18T21:42:15.553Z,3.20
2023-04-18T21:44:43.636Z,3.10
2023-04-18T21:47:11.736Z,3.10
2023-04-18T21:49:41.465Z,3.80
2023-04-18T21:52:10.548Z,3.10
2023-04-18T21:54:39.996Z,3.10
2023-04-18T21:57:08.061Z,3.00
2023-04-18T21:59:36.132Z,3.40
2023-04-18T22:02:05.426Z,3.20
2023-04-18T22:04:33.971Z,3.40
2023-04-18T22:07:02.514Z,3.50
2023-04-18T22:09:31.540Z,3.50
2023-04-18T22:11:59.695Z,3.40
2023-04-18T22:14:28.343Z,3.50
2023-04-18T22:16:56.597Z,3.40
2023-04-18T22:19:25.828Z,3.30
2023-04-18T22:21:53.972Z,3.20
2023-04-18T22:24:22.334Z,3.40
2023-04-18T22:26:50.620Z,3.20
2023-04-18T22:29:18.934Z,3.30
2023-04-18T22:31:47.122Z,3.20
2023-04-18T22:34:15.531Z,2.90
2023-04-18T22:36:45.719Z,2.90
2023-04-18T22:39:13.813Z,3.10
2023-04-18T22:41:41.847Z,2.90
2023-04-18T22:44:09.894Z,3.20
2023-04-18T22:46:39.451Z,3.00
2023-04-18T22:49:07.582Z,3.20
2023-04-18T22:51:35.655Z,2.90
2023-04-18T22:54:03.899Z,3.10
2023-04-18T22:56:31.928Z,2.80
2023-04-18T22:58:59.981Z,2.90
2023-04-18T23:01:28.095Z,3.10
2023-04-18T23:03:56.578Z,3.10
2023-04-18T23:06:24.913Z,3.20
2023-04-18T23:08:52.914Z,2.90
2023-04-18T23:11:21.758Z,3.10
2023-04-18T23:13:49.816Z,3.10
2023-04-18T23:16:17.932Z,3.00
2023-04-18T23:18:46.082Z,2.60
2023-04-18T23:21:14.541Z,2.70
2023-04-18T23:23:42.572Z,2.90
2023-04-18T23:26:14.771Z,3.00
2023-04-18T23:28:42.970Z,3.00
2023-04-18T23:31:11.101Z,2.80
2023-04-18T23:33:39.166Z,2.80
2023-04-18T23:36:07.869Z,3.20
2023-04-18T23:38:37.499Z,2.90
2023-04-18T23:41:05.655Z,3.00
2023-04-18T23:43:34.685Z,2.90
2023-04-18T23:46:02.884Z,2.60
2023-04-18T23:48:30.961Z,3.10
2023-04-18T23:50:59.036Z,2.90
2023-04-18T23:53:27.105Z,2.80
2023-04-18T23:55:55.492Z,3.20
2023-04-18T23:58:23.559Z,3.40
